Time;durP1;ratioP1;P1;durP2;ratioP2;P2;SDS_P1;SDS_P2;PMS_P1;PMS_P2;Temp;Humidity;BMP_temperature;BMP_pressure;BME280_temperature;BME280_humidity;BME280_pressure;Samples;Min_cycle;Max_cycle;Signal;HPM_P1;HPM_P2
2023/06/24 00:00:43;;;;;;;29.00;16.08;;;;;;;;;;5007610;28;20030;-66
2023/06/24 00:03:08;;;;;;;26.80;16.03;;;;;;;;;;5004167;28;20034;-66
2023/06/24 00:05:34;;;;;;;28.52;15.88;;;;;;;;;;5004461;28;20022;-66
2023/06/24 00:08:02;;;;;;;30.13;16.60;;;;;;;;;;5005382;28;20057;-65
2023/06/24 00:10:28;;;;;;;32.10;17.38;;;;;;;;;;4998922;28;20026;-66
2023/06/24 00:12:53;;;;;;;32.50;17.87;;;;;;;;;;5002942;28;20018;-66
2023/06/24 00:15:18;;;;;;;37.00;19.47;;;;;;;;;;5002057;28;20018;-66
2023/06/24 00:17:43;;;;;;;40.73;20.30;;;;;;;;;;5009023;28;20022;-66
2023/06/24 00:20:11;;;;;;;43.77;21.83;;;;;;;;;;5001813;28;20041;-66
2023/06/24 00:22:38;;;;;;;45.15;21.95;;;;;;;;;;5003385;28;20065;-65
2023/06/24 00:25:05;;;;;;;47.43;22.53;;;;;;;;;;5000941;28;20461;-66
2023/06/24 00:27:30;;;;;;;41.93;21.07;;;;;;;;;;4998692;28;20105;-66
2023/06/24 00:29:55;;;;;;;41.10;21.30;;;;;;;;;;5002661;28;20108;-66
2023/06/24 00:32:20;;;;;;;52.07;23.13;;;;;;;;;;4998959;28;20093;-66
2023/06/24 00:34:47;;;;;;;49.58;24.38;;;;;;;;;;5010236;28;20068;-66
2023/06/24 00:37:12;;;;;;;50.73;24.00;;;;;;;;;;5014724;28;20022;-66
2023/06/24 00:39:38;;;;;;;58.63;26.53;;;;;;;;;;5002039;28;20538;-65
2023/06/24 00:42:03;;;;;;;52.77;23.33;;;;;;;;;;5006049;28;20056;-65
2023/06/24 00:44:29;;;;;;;48.00;21.73;;;;;;;;;;5006386;28;20030;-65
2023/06/24 00:46:54;;;;;;;42.07;21.70;;;;;;;;;;5007776;28;20018;-66
2023/06/24 00:49:20;;;;;;;48.73;23.77;;;;;;;;;;5004235;28;20030;-65
2023/06/24 00:51:50;;;;;;;53.20;23.83;;;;;;;;;;5008730;28;20105;-66
2023/06/24 00:54:17;;;;;;;53.13;24.87;;;;;;;;;;5000029;28;20030;-65
2023/06/24 00:56:43;;;;;;;53.43;23.70;;;;;;;;;;5000860;28;20064;-66
2023/06/24 00:59:10;;;;;;;51.23;24.80;;;;;;;;;;5002751;28;20464;-65
2023/06/24 01:04:13;;;;;;;61.57;26.50;;;;;;;;;;5021748;28;20052;-61
2023/06/24 01:06:43;;;;;;;59.47;26.07;;;;;;;;;;5016285;28;20026;-66
2023/06/24 01:09:09;;;;;;;66.67;29.67;;;;;;;;;;5017397;28;20029;-67
2023/06/24 01:11:34;;;;;;;69.53;29.60;;;;;;;;;;5019294;28;20087;-67
2023/06/24 01:13:59;;;;;;;71.10;29.43;;;;;;;;;;5018995;28;20036;-66
2023/06/24 01:16:34;;;;;;;79.20;31.87;;;;;;;;;;5022659;28;20376;-67
2023/06/24 01:19:05;;;;;;;62.80;27.80;;;;;;;;;;5021562;28;20117;-67
2023/06/24 01:21:35;;;;;;;63.10;26.63;;;;;;;;;;5017355;28;20387;-67
2023/06/24 01:24:08;;;;;;;62.93;27.20;;;;;;;;;;5019290;28;20560;-67
2023/06/24 01:26:54;;;;;;;70.33;29.10;;;;;;;;;;5016738;28;20026;-67
2023/06/24 01:29:44;;;;;;;82.03;30.97;;;;;;;;;;5015270;28;20057;-66
2023/06/24 01:32:24;;;;;;;77.17;30.90;;;;;;;;;;5021996;28;20029;-66
2023/06/24 01:34:54;;;;;;;80.23;30.63;;;;;;;;;;5023097;28;20491;-67
2023/06/24 01:37:31;;;;;;;77.30;31.53;;;;;;;;;;5016133;28;20038;-67
2023/06/24 01:40:11;;;;;;;75.17;30.30;;;;;;;;;;5014782;28;20046;-67
2023/06/24 01:42:38;;;;;;;69.80;28.10;;;;;;;;;;5024772;28;20026;-67
2023/06/24 01:45:04;;;;;;;68.77;28.47;;;;;;;;;;5014366;28;20022;-67
2023/06/24 01:47:30;;;;;;;70.43;28.17;;;;;;;;;;5016400;28;20018;-67
2023/06/24 01:49:58;;;;;;;76.07;30.27;;;;;;;;;;5023977;28;20036;-67
2023/06/24 01:52:23;;;;;;;66.43;27.10;;;;;;;;;;5026278;28;20099;-66
2023/06/24 01:54:49;;;;;;;67.73;27.67;;;;;;;;;;5016296;28;20038;-66
2023/06/24 01:57:15;;;;;;;71.33;28.97;;;;;;;;;;5025019;28;20414;-66
2023/06/24 01:59:42;;;;;;;83.30;31.80;;;;;;;;;;5014173;28;20483;-66
2023/06/24 02:02:08;;;;;;;75.40;29.83;;;;;;;;;;5016593;28;20113;-67
2023/06/24 02:04:33;;;;;;;66.13;25.63;;;;;;;;;;5012591;28;20114;-67
2023/06/24 02:07:03;;;;;;;71.50;27.43;;;;;;;;;;5011792;28;20014;-66
2023/06/24 02:09:28;;;;;;;72.30;28.70;;;;;;;;;;5011845;28;20032;-67
2023/06/24 02:11:56;;;;;;;74.53;28.63;;;;;;;;;;5010607;28;20026;-66
2023/06/24 02:14:21;;;;;;;76.90;29.63;;;;;;;;;;5012820;28;20076;-66
2023/06/24 02:16:47;;;;;;;68.23;29.37;;;;;;;;;;5007446;28;20034;-66
2023/06/24 02:19:17;;;;;;;78.97;30.53;;;;;;;;;;5012403;28;20538;-66
2023/06/24 02:21:43;;;;;;;70.00;27.90;;;;;;;;;;5008878;28;20018;-66
2023/06/24 02:24:08;;;;;;;63.70;26.03;;;;;;;;;;5011702;28;20022;-66
2023/06/24 02:26:34;;;;;;;53.57;23.63;;;;;;;;;;5012301;28;20077;-67
2023/06/24 02:29:00;;;;;;;62.43;26.57;;;;;;;;;;5010941;28;20085;-67
2023/06/24 02:31:25;;;;;;;63.33;27.23;;;;;;;;;;5012689;28;20022;-61
2023/06/24 02:33:51;;;;;;;68.47;26.97;;;;;;;;;;5007492;28;20022;-61
2023/06/24 02:36:16;;;;;;;56.33;24.63;;;;;;;;;;5005677;28;20057;-61
2023/06/24 02:38:41;;;;;;;47.40;22.30;;;;;;;;;;5008395;28;20025;-60
2023/06/24 02:41:07;;;;;;;60.90;24.73;;;;;;;;;;5011709;28;20033;-61
2023/06/24 02:43:32;;;;;;;62.87;26.30;;;;;;;;;;5009441;28;20412;-61
2023/06/24 02:46:00;;;;;;;59.67;24.90;;;;;;;;;;5008384;28;20022;-61
2023/06/24 02:48:26;;;;;;;60.23;24.40;;;;;;;;;;5011245;28;20022;-60
2023/06/24 02:50:51;;;;;;;71.87;26.67;;;;;;;;;;5012394;28;20021;-60
2023/06/24 02:53:17;;;;;;;74.17;29.03;;;;;;;;;;5008657;28;20093;-61
2023/06/24 02:55:42;;;;;;;65.67;27.17;;;;;;;;;;5011325;28;20018;-66
2023/06/24 02:58:08;;;;;;;75.60;28.63;;;;;;;;;;5009664;28;20033;-66
2023/06/24 03:00:34;;;;;;;56.50;24.37;;;;;;;;;;5007097;28;20028;-67
2023/06/24 03:03:01;;;;;;;57.43;23.63;;;;;;;;;;5005896;28;20042;-66
2023/06/24 03:05:27;;;;;;;71.47;27.03;;;;;;;;;;5006773;28;20018;-66
2023/06/24 03:07:52;;;;;;;81.97;27.03;;;;;;;;;;5009744;28;20048;-66
2023/06/24 03:10:18;;;;;;;63.00;24.50;;;;;;;;;;5010027;28;20037;-67
2023/06/24 03:12:43;;;;;;;73.13;27.27;;;;;;;;;;5007691;28;20026;-67
2023/06/24 03:15:09;;;;;;;69.73;25.97;;;;;;;;;;5005552;28;20030;-66
2023/06/24 03:17:34;;;;;;;83.03;31.30;;;;;;;;;;5004915;28;20475;-66
2023/06/24 03:19:59;;;;;;;63.27;25.20;;;;;;;;;;5009726;28;20024;-66
2023/06/24 03:22:25;;;;;;;77.27;27.70;;;;;;;;;;5009405;28;20053;-66
2023/06/24 03:24:52;;;;;;;89.13;30.83;;;;;;;;;;5009521;28;20030;-66
2023/06/24 03:27:18;;;;;;;76.73;27.90;;;;;;;;;;5008239;28;20038;-66
2023/06/24 03:29:44;;;;;;;72.13;28.20;;;;;;;;;;5011694;28;20048;-66
2023/06/24 03:32:09;;;;;;;68.87;27.43;;;;;;;;;;5009750;28;20033;-67
2023/06/24 03:34:34;;;;;;;62.50;24.93;;;;;;;;;;5004100;28;20025;-66
2023/06/24 03:37:00;;;;;;;54.17;22.60;;;;;;;;;;5008525;28;20018;-67
2023/06/24 03:39:25;;;;;;;48.33;22.57;;;;;;;;;;5007473;28;20025;-67
2023/06/24 03:41:50;;;;;;;50.00;21.43;;;;;;;;;;5009971;28;20041;-67
2023/06/24 03:44:16;;;;;;;65.20;25.20;;;;;;;;;;5004621;28;20058;-67
2023/06/24 03:46:41;;;;;;;64.00;26.13;;;;;;;;;;5009824;28;20014;-67
2023/06/24 03:49:07;;;;;;;67.57;28.17;;;;;;;;;;5006405;28;20029;-66
2023/06/24 03:51:32;;;;;;;67.70;29.97;;;;;;;;;;5007902;28;20417;-66
2023/06/24 03:53:57;;;;;;;53.73;26.07;;;;;;;;;;5006913;28;20026;-66
2023/06/24 03:56:23;;;;;;;50.70;24.73;;;;;;;;;;5007489;28;20084;-66
2023/06/24 03:58:48;;;;;;;47.17;23.57;;;;;;;;;;5009591;28;20032;-66
2023/06/24 04:01:14;;;;;;;47.27;23.20;;;;;;;;;;5009171;28;20518;-66
2023/06/24 04:03:39;;;;;;;46.03;23.33;;;;;;;;;;5007411;28;20104;-66
2023/06/24 04:06:04;;;;;;;37.55;21.30;;;;;;;;;;5006882;28;20037;-66
2023/06/24 04:08:30;;;;;;;31.67;17.20;;;;;;;;;;5008991;28;20040;-66
2023/06/24 04:10:56;;;;;;;25.02;15.30;;;;;;;;;;5008647;28;20022;-66
2023/06/24 04:13:21;;;;;;;21.85;13.10;;;;;;;;;;5009909;28;20391;-66
2023/06/24 04:15:46;;;;;;;22.40;11.93;;;;;;;;;;5006279;28;20037;-65
2023/06/24 04:18:12;;;;;;;17.65;11.90;;;;;;;;;;5006188;28;20060;-65
2023/06/24 04:20:37;;;;;;;18.17;11.25;;;;;;;;;;5002725;28;20053;-65
2023/06/24 04:23:03;;;;;;;15.93;11.25;;;;;;;;;;5006608;28;20059;-61
2023/06/24 04:25:28;;;;;;;18.30;11.00;;;;;;;;;;5010370;28;20018;-60
2023/06/24 04:27:54;;;;;;;16.58;11.07;;;;;;;;;;5007887;28;20591;-59
2023/06/24 04:30:19;;;;;;;15.82;10.73;;;;;;;;;;5007245;28;20021;-59
2023/06/24 04:32:44;;;;;;;17.83;10.55;;;;;;;;;;5009865;28;20017;-60
2023/06/24 04:35:10;;;;;;;17.17;10.98;;;;;;;;;;5006674;28;20087;-60
2023/06/24 04:37:35;;;;;;;16.70;11.43;;;;;;;;;;5006976;28;20037;-60
2023/06/24 04:40:00;;;;;;;19.48;10.70;;;;;;;;;;5008750;28;20034;-60
2023/06/24 04:42:25;;;;;;;18.77;11.40;;;;;;;;;;5012230;28;20025;-60
2023/06/24 04:44:51;;;;;;;19.55;11.63;;;;;;;;;;5010307;28;20097;-60
2023/06/24 04:47:17;;;;;;;18.75;12.07;;;;;;;;;;5012026;28;20022;-59
2023/06/24 04:49:43;;;;;;;16.92;11.35;;;;;;;;;;5010915;28;20464;-59
2023/06/24 04:52:08;;;;;;;17.63;11.70;;;;;;;;;;5010735;28;20014;-59
2023/06/24 04:54:33;;;;;;;17.85;11.30;;;;;;;;;;5013473;28;20053;-59
2023/06/24 04:56:59;;;;;;;17.90;11.60;;;;;;;;;;5011312;28;20378;-59
2023/06/24 04:59:24;;;;;;;16.27;11.50;;;;;;;;;;5013566;28;20080;-64
2023/06/24 05:01:49;;;;;;;18.63;11.05;;;;;;;;;;5013251;28;20021;-64
2023/06/24 05:04:15;;;;;;;18.10;11.60;;;;;;;;;;5011906;28;20396;-65
2023/06/24 05:06:40;;;;;;;17.08;11.82;;;;;;;;;;5013136;28;20033;-65
2023/06/24 05:09:05;;;;;;;16.15;11.10;;;;;;;;;;5008083;28;20026;-65
2023/06/24 05:11:30;;;;;;;16.33;11.05;;;;;;;;;;5007386;28;20021;-65
2023/06/24 05:13:56;;;;;;;15.75;10.90;;;;;;;;;;5005789;28;20436;-65
2023/06/24 05:16:22;;;;;;;15.38;10.80;;;;;;;;;;5005094;28;20498;-65
2023/06/24 05:18:47;;;;;;;17.70;11.25;;;;;;;;;;5011005;28;20034;-65
2023/06/24 05:21:12;;;;;;;19.30;11.07;;;;;;;;;;5014732;28;20025;-65
2023/06/24 05:23:37;;;;;;;14.93;10.50;;;;;;;;;;5014197;28;20032;-66
2023/06/24 05:26:03;;;;;;;15.48;9.70;;;;;;;;;;5014162;28;20049;-65
2023/06/24 05:28:28;;;;;;;16.52;10.35;;;;;;;;;;5013649;28;20112;-65
2023/06/24 05:30:53;;;;;;;17.85;10.90;;;;;;;;;;5012735;28;20018;-65
2023/06/24 05:33:19;;;;;;;16.17;10.32;;;;;;;;;;5013622;28;20114;-65
2023/06/24 05:35:44;;;;;;;18.85;10.65;;;;;;;;;;5013198;28;20360;-66
2023/06/24 05:38:09;;;;;;;15.55;10.77;;;;;;;;;;5013772;28;20471;-65
2023/06/24 05:40:35;;;;;;;14.73;10.13;;;;;;;;;;5013437;28;20049;-65
2023/06/24 05:43:00;;;;;;;13.93;9.75;;;;;;;;;;5013350;28;20022;-66
2023/06/24 05:45:26;;;;;;;15.45;10.02;;;;;;;;;;5010379;28;20042;-65
2023/06/24 05:47:51;;;;;;;12.10;9.30;;;;;;;;;;5011804;28;20105;-66
2023/06/24 05:50:16;;;;;;;16.13;10.18;;;;;;;;;;5009417;28;20341;-65
2023/06/24 05:52:41;;;;;;;15.65;9.32;;;;;;;;;;5010084;28;20016;-65
2023/06/24 05:55:07;;;;;;;16.10;9.80;;;;;;;;;;5012083;28;20056;-66
2023/06/24 05:57:32;;;;;;;14.55;8.80;;;;;;;;;;5012864;28;20029;-66
2023/06/24 05:59:58;;;;;;;12.40;9.00;;;;;;;;;;5008907;28;20026;-66
2023/06/24 06:02:23;;;;;;;12.13;9.05;;;;;;;;;;5008966;28;20404;-66
2023/06/24 06:04:48;;;;;;;14.13;9.20;;;;;;;;;;5009554;28;20026;-66
2023/06/24 06:07:13;;;;;;;12.43;8.80;;;;;;;;;;5010938;28;20165;-66
2023/06/24 06:09:39;;;;;;;13.57;9.60;;;;;;;;;;5007707;28;20507;-66
2023/06/24 06:12:05;;;;;;;12.90;8.57;;;;;;;;;;5009420;28;20018;-66
2023/06/24 06:14:30;;;;;;;12.88;8.57;;;;;;;;;;5012186;28;20013;-66
2023/06/24 06:16:55;;;;;;;12.18;8.50;;;;;;;;;;5004241;28;20038;-66
2023/06/24 06:19:20;;;;;;;11.88;8.30;;;;;;;;;;5010613;28;20018;-66
2023/06/24 06:21:46;;;;;;;11.85;7.68;;;;;;;;;;5001375;28;20021;-66
2023/06/24 06:24:11;;;;;;;13.25;7.65;;;;;;;;;;5007718;28;20022;-66
2023/06/24 06:26:41;;;;;;;10.68;7.82;;;;;;;;;;5012868;28;20026;-66
2023/06/24 06:29:06;;;;;;;10.13;7.18;;;;;;;;;;5012784;28;20017;-66
2023/06/24 06:31:31;;;;;;;10.52;6.88;;;;;;;;;;5000090;28;20037;-67
2023/06/24 06:33:57;;;;;;;9.15;6.38;;;;;;;;;;5001876;28;20030;-67
2023/06/24 06:36:22;;;;;;;9.18;6.07;;;;;;;;;;5010368;28;20022;-67
2023/06/24 06:38:47;;;;;;;10.10;6.32;;;;;;;;;;5011816;28;20034;-67
2023/06/24 06:41:12;;;;;;;10.50;6.65;;;;;;;;;;5009243;28;20716;-67
2023/06/24 06:43:38;;;;;;;8.68;5.93;;;;;;;;;;4999718;28;20022;-67
2023/06/24 06:46:03;;;;;;;7.93;5.25;;;;;;;;;;5003935;28;20030;-67
2023/06/24 06:48:28;;;;;;;9.80;5.78;;;;;;;;;;5008476;28;20472;-67
2023/06/24 06:50:54;;;;;;;8.75;4.88;;;;;;;;;;4999682;28;20104;-67
2023/06/24 06:53:19;;;;;;;8.93;4.43;;;;;;;;;;5013522;28;20093;-67
2023/06/24 06:55:44;;;;;;;6.15;3.95;;;;;;;;;;5013934;28;20040;-66
2023/06/24 06:58:10;;;;;;;8.23;4.93;;;;;;;;;;5010138;28;20030;-67
2023/06/24 07:00:35;;;;;;;8.82;4.70;;;;;;;;;;5010018;28;20113;-66
2023/06/24 07:03:00;;;;;;;7.93;4.18;;;;;;;;;;5007140;28;20129;-67
2023/06/24 07:05:26;;;;;;;7.63;4.28;;;;;;;;;;4995808;28;20380;-67
2023/06/24 07:07:51;;;;;;;7.43;4.15;;;;;;;;;;5001850;28;20019;-67
2023/06/24 07:10:19;;;;;;;6.93;4.63;;;;;;;;;;5013041;28;20148;-67
2023/06/24 07:12:45;;;;;;;10.00;4.20;;;;;;;;;;5002193;28;20084;-67
2023/06/24 07:15:11;;;;;;;6.38;3.63;;;;;;;;;;4994258;28;20109;-67
2023/06/24 07:17:36;;;;;;;7.50;3.92;;;;;;;;;;5004212;28;20105;-67
2023/06/24 07:20:01;;;;;;;6.13;3.40;;;;;;;;;;5005959;28;20022;-67
2023/06/24 07:22:27;;;;;;;7.40;3.50;;;;;;;;;;5009165;28;20124;-60
2023/06/24 07:24:52;;;;;;;7.28;3.67;;;;;;;;;;5011616;28;20032;-60
2023/06/24 07:27:17;;;;;;;7.00;3.88;;;;;;;;;;5003810;28;20380;-60
2023/06/24 07:29:43;;;;;;;8.93;4.00;;;;;;;;;;4993768;28;20517;-60
2023/06/24 07:32:08;;;;;;;6.95;3.72;;;;;;;;;;5007422;28;20541;-60
2023/06/24 07:34:33;;;;;;;7.55;4.28;;;;;;;;;;5013259;28;20030;-60
2023/06/24 07:36:59;;;;;;;7.65;3.90;;;;;;;;;;5007327;28;20030;-60
2023/06/24 07:39:24;;;;;;;6.80;3.83;;;;;;;;;;5003215;28;20030;-67
2023/06/24 07:41:49;;;;;;;6.70;3.75;;;;;;;;;;5012939;28;20018;-67
2023/06/24 07:44:15;;;;;;;9.88;4.28;;;;;;;;;;5013496;28;20026;-60
2023/06/24 07:46:40;;;;;;;6.88;4.00;;;;;;;;;;5006348;28;20018;-60
2023/06/24 07:49:05;;;;;;;6.22;3.72;;;;;;;;;;4999740;28;20653;-60
2023/06/24 07:51:30;;;;;;;8.80;3.97;;;;;;;;;;5006078;28;20503;-60
2023/06/24 07:53:56;;;;;;;6.78;3.70;;;;;;;;;;5003744;28;20049;-60
2023/06/24 07:56:21;;;;;;;6.97;3.70;;;;;;;;;;5004304;28;20479;-59
2023/06/24 07:58:46;;;;;;;5.82;3.67;;;;;;;;;;5001347;28;20559;-60
2023/06/24 08:01:12;;;;;;;8.00;3.72;;;;;;;;;;4998642;28;20026;-60
2023/06/24 08:03:37;;;;;;;8.25;3.70;;;;;;;;;;5002777;28;20408;-60
2023/06/24 08:06:02;;;;;;;6.68;3.65;;;;;;;;;;5005708;28;20021;-60
2023/06/24 08:08:28;;;;;;;6.15;3.88;;;;;;;;;;5011994;28;20153;-60
2023/06/24 08:10:53;;;;;;;7.15;3.50;;;;;;;;;;5008564;28;20466;-60
2023/06/24 08:13:19;;;;;;;6.80;3.65;;;;;;;;;;5002840;28;20018;-60
2023/06/24 08:15:44;;;;;;;8.00;3.83;;;;;;;;;;5011419;28;20104;-60
2023/06/24 08:18:10;;;;;;;6.47;3.50;;;;;;;;;;5010386;28;20028;-60
2023/06/24 08:20:35;;;;;;;7.22;3.83;;;;;;;;;;5015038;28;20494;-60
2023/06/24 08:23:00;;;;;;;7.60;3.90;;;;;;;;;;5013696;28;20022;-60
2023/06/24 08:25:26;;;;;;;8.75;3.83;;;;;;;;;;5013977;28;20109;-60
2023/06/24 08:27:52;;;;;;;6.78;3.67;;;;;;;;;;5011505;28;20732;-59
2023/06/24 08:30:18;;;;;;;7.65;4.00;;;;;;;;;;5016989;28;20025;-60
2023/06/24 08:32:43;;;;;;;9.00;3.80;;;;;;;;;;5011540;28;20156;-60
2023/06/24 08:35:09;;;;;;;7.47;3.92;;;;;;;;;;4997302;28;20018;-60
2023/06/24 08:37:34;;;;;;;8.45;4.28;;;;;;;;;;5007816;28;20041;-59
2023/06/24 08:40:00;;;;;;;6.03;3.72;;;;;;;;;;5016339;28;20088;-60
2023/06/24 08:42:25;;;;;;;5.75;3.47;;;;;;;;;;5016716;28;20379;-59
2023/06/24 08:44:50;;;;;;;9.43;3.80;;;;;;;;;;5015062;28;20072;-60
2023/06/24 08:47:16;;;;;;;9.55;3.75;;;;;;;;;;5012347;28;20521;-59
2023/06/24 08:49:50;;;;;;;6.45;3.65;;;;;;;;;;5016616;28;20018;-60
2023/06/24 08:52:16;;;;;;;6.63;3.47;;;;;;;;;;5014795;28;20388;-60
2023/06/24 08:54:45;;;;;;;6.45;3.47;;;;;;;;;;5016179;28;20022;-60
2023/06/24 08:57:14;;;;;;;6.88;3.50;;;;;;;;;;5014193;28;20033;-60
2023/06/24 08:59:39;;;;;;;6.85;3.35;;;;;;;;;;5016148;28;20025;-60
2023/06/24 09:02:05;;;;;;;6.88;3.33;;;;;;;;;;5006260;28;20122;-60
2023/06/24 09:04:30;;;;;;;6.53;3.53;;;;;;;;;;4996664;28;20022;-58
2023/06/24 09:06:56;;;;;;;8.40;3.50;;;;;;;;;;5000616;28;20022;-58
2023/06/24 09:09:22;;;;;;;6.35;2.88;;;;;;;;;;5002144;28;20030;-57
2023/06/24 09:11:57;;;;;;;4.45;2.40;;;;;;;;;;4996655;28;20486;-58
2023/06/24 09:14:23;;;;;;;5.50;3.03;;;;;;;;;;4996575;28;20471;-58
2023/06/24 09:16:56;;;;;;;5.03;2.72;;;;;;;;;;5002962;28;20491;-57
2023/06/24 09:19:28;;;;;;;4.72;2.90;;;;;;;;;;4996457;28;20120;-57
2023/06/24 09:21:53;;;;;;;5.60;2.90;;;;;;;;;;4997898;28;20107;-57
2023/06/24 09:24:18;;;;;;;6.25;2.60;;;;;;;;;;5015347;28;20054;-58
2023/06/24 09:26:47;;;;;;;5.60;2.55;;;;;;;;;;5003625;28;20026;-58
2023/06/24 09:29:13;;;;;;;4.35;2.33;;;;;;;;;;4996067;28;20097;-57
2023/06/24 09:31:48;;;;;;;5.93;2.55;;;;;;;;;;5013640;28;20052;-59
2023/06/24 09:34:14;;;;;;;4.95;2.47;;;;;;;;;;4995959;28;20054;-59
2023/06/24 09:36:50;;;;;;;5.55;2.88;;;;;;;;;;4997912;28;20072;-58
2023/06/24 09:39:15;;;;;;;4.78;2.65;;;;;;;;;;4996109;28;20538;-58
2023/06/24 09:41:41;;;;;;;6.78;3.00;;;;;;;;;;4997226;28;20026;-58
2023/06/24 09:44:13;;;;;;;7.88;2.90;;;;;;;;;;5012747;28;20095;-58
2023/06/24 09:46:38;;;;;;;7.03;3.20;;;;;;;;;;5002696;28;20026;-58
2023/06/24 09:49:04;;;;;;;8.82;3.15;;;;;;;;;;5004704;28;20014;-58
2023/06/24 09:51:32;;;;;;;8.82;3.65;;;;;;;;;;5013721;28;20075;-59
2023/06/24 09:53:57;;;;;;;6.35;3.50;;;;;;;;;;5015400;28;20499;-58
2023/06/24 09:56:23;;;;;;;6.85;3.15;;;;;;;;;;5014056;28;20026;-59
2023/06/24 09:58:49;;;;;;;6.15;3.42;;;;;;;;;;4997837;28;20031;-58
2023/06/24 10:01:16;;;;;;;7.40;3.60;;;;;;;;;;5007059;28;20073;-58
2023/06/24 10:03:41;;;;;;;8.18;3.88;;;;;;;;;;5001500;28;20042;-58
2023/06/24 10:06:07;;;;;;;8.30;3.83;;;;;;;;;;5007464;28;20591;-57
2023/06/24 10:08:32;;;;;;;6.47;3.90;;;;;;;;;;5008714;28;20104;-57
2023/06/24 10:11:01;;;;;;;8.00;4.20;;;;;;;;;;5014765;28;20045;-57
2023/06/24 10:13:27;;;;;;;6.75;3.30;;;;;;;;;;5013717;28;20097;-57
2023/06/24 10:15:53;;;;;;;8.93;3.58;;;;;;;;;;5011034;28;20097;-58
2023/06/24 10:18:41;;;;;;;6.55;3.50;;;;;;;;;;5002976;28;20105;-57
2023/06/24 10:21:08;;;;;;;7.80;4.03;;;;;;;;;;5003499;28;20069;-57
2023/06/24 10:23:53;;;;;;;8.88;4.20;;;;;;;;;;5014224;28;20048;-58
2023/06/24 10:26:28;;;;;;;7.18;2.95;;;;;;;;;;5010430;28;20042;-57
2023/06/24 10:29:08;;;;;;;7.35;4.03;;;;;;;;;;5011031;28;20022;-58
2023/06/24 10:32:00;;;;;;;7.30;3.65;;;;;;;;;;5005551;28;20026;-58
2023/06/24 10:34:32;;;;;;;6.80;3.30;;;;;;;;;;4991350;28;20065;-57
2023/06/24 10:37:02;;;;;;;5.35;3.17;;;;;;;;;;5007443;28;20434;-58
2023/06/24 10:40:00;;;;;;;7.57;3.55;;;;;;;;;;5009583;28;20077;-58
2023/06/24 10:42:26;;;;;;;5.57;3.15;;;;;;;;;;4990361;28;20403;-58
2023/06/24 10:44:52;;;;;;;7.63;3.80;;;;;;;;;;5007106;28;20017;-58
2023/06/24 10:47:18;;;;;;;5.47;3.50;;;;;;;;;;5010234;28;20034;-59
2023/06/24 10:49:43;;;;;;;5.18;3.38;;;;;;;;;;5001325;28;20028;-58
2023/06/24 10:52:09;;;;;;;9.38;4.20;;;;;;;;;;5009140;28;20036;-58
2023/06/24 10:54:35;;;;;;;6.22;3.88;;;;;;;;;;5009721;28;20022;-58
2023/06/24 10:57:00;;;;;;;6.25;3.80;;;;;;;;;;5012691;28;20026;-59
2023/06/24 10:59:25;;;;;;;6.63;3.67;;;;;;;;;;5004710;28;20053;-59
2023/06/24 11:01:53;;;;;;;7.43;4.82;;;;;;;;;;5011938;28;20026;-58
2023/06/24 11:04:19;;;;;;;7.45;3.50;;;;;;;;;;5000925;28;20042;-60
2023/06/24 11:06:56;;;;;;;8.55;3.67;;;;;;;;;;4994888;28;20471;-59
2023/06/24 11:09:21;;;;;;;6.28;3.75;;;;;;;;;;5001073;28;20080;-60
2023/06/24 11:11:47;;;;;;;7.03;3.58;;;;;;;;;;4997794;28;20017;-59
2023/06/24 11:14:15;;;;;;;8.00;3.80;;;;;;;;;;5007047;28;20023;-60
2023/06/24 11:16:40;;;;;;;7.10;4.00;;;;;;;;;;5002488;28;20045;-59
2023/06/24 11:19:06;;;;;;;6.38;3.80;;;;;;;;;;4998865;28;20029;-59
2023/06/24 11:21:33;;;;;;;7.45;4.10;;;;;;;;;;5000837;28;20057;-59
2023/06/24 11:24:05;;;;;;;9.32;3.92;;;;;;;;;;5008619;28;20506;-60
2023/06/24 11:26:30;;;;;;;6.43;3.97;;;;;;;;;;5012209;28;20454;-60
2023/06/24 11:28:56;;;;;;;6.28;3.70;;;;;;;;;;5008540;28;20018;-61
2023/06/24 11:31:27;;;;;;;7.32;4.70;;;;;;;;;;5011448;28;20084;-60
2023/06/24 11:33:52;;;;;;;9.05;4.70;;;;;;;;;;5008599;28;20506;-61
2023/06/24 11:36:21;;;;;;;8.65;3.80;;;;;;;;;;5009107;28;20025;-60
2023/06/24 11:38:47;;;;;;;7.50;4.22;;;;;;;;;;5004335;28;20029;-60
2023/06/24 11:41:12;;;;;;;10.05;3.95;;;;;;;;;;5007403;28;20450;-61
2023/06/24 11:43:43;;;;;;;7.15;4.03;;;;;;;;;;5009167;28;20085;-60
2023/06/24 11:46:08;;;;;;;7.75;3.58;;;;;;;;;;5011396;28;20097;-60
2023/06/24 11:48:38;;;;;;;6.70;4.03;;;;;;;;;;5000463;28;20109;-60
2023/06/24 11:51:04;;;;;;;7.38;3.60;;;;;;;;;;5006230;28;20020;-60
2023/06/24 11:53:30;;;;;;;8.73;3.67;;;;;;;;;;5010277;28;20488;-61
2023/06/24 11:55:56;;;;;;;9.25;3.45;;;;;;;;;;5008383;28;20025;-61
2023/06/24 11:58:21;;;;;;;6.32;3.42;;;;;;;;;;4999881;28;20022;-61
2023/06/24 12:00:48;;;;;;;7.55;3.53;;;;;;;;;;5001459;28;20387;-61
2023/06/24 12:03:14;;;;;;;7.28;3.47;;;;;;;;;;5005663;28;20035;-61
2023/06/24 12:05:44;;;;;;;10.80;4.25;;;;;;;;;;4999452;28;20161;-61
2023/06/24 12:08:10;;;;;;;5.93;3.40;;;;;;;;;;5003299;28;20029;-61
2023/06/24 12:10:36;;;;;;;8.32;3.60;;;;;;;;;;5006718;28;20037;-61
2023/06/24 12:13:03;;;;;;;9.55;3.85;;;;;;;;;;5009506;28;20010;-61
2023/06/24 12:15:29;;;;;;;7.32;3.78;;;;;;;;;;5006265;28;20026;-61
2023/06/24 12:17:54;;;;;;;6.63;3.90;;;;;;;;;;4996440;28;20495;-60
2023/06/24 12:20:19;;;;;;;7.50;3.85;;;;;;;;;;5006218;28;20038;-60
2023/06/24 12:22:47;;;;;;;5.55;3.38;;;;;;;;;;5010390;28;20022;-60
2023/06/24 12:25:13;;;;;;;7.65;3.63;;;;;;;;;;5007010;28;20133;-61
2023/06/24 12:27:39;;;;;;;6.60;3.78;;;;;;;;;;5009204;28;20532;-61
2023/06/24 12:30:05;;;;;;;6.00;3.30;;;;;;;;;;5005138;28;20018;-60
2023/06/24 12:32:30;;;;;;;6.70;3.53;;;;;;;;;;5005442;28;20035;-60
2023/06/24 12:34:56;;;;;;;5.78;3.40;;;;;;;;;;5003050;28;20026;-61
2023/06/24 12:37:21;;;;;;;6.10;3.00;;;;;;;;;;5010694;28;20372;-61
2023/06/24 12:39:47;;;;;;;5.18;3.15;;;;;;;;;;5005979;28;20030;-61
2023/06/24 12:42:12;;;;;;;6.90;3.55;;;;;;;;;;5012599;28;20472;-61
2023/06/24 12:44:38;;;;;;;8.13;3.40;;;;;;;;;;4999987;28;20031;-61
2023/06/24 12:47:03;;;;;;;7.30;3.60;;;;;;;;;;5005992;28;20018;-61
2023/06/24 12:49:29;;;;;;;6.00;3.95;;;;;;;;;;5005359;28;20018;-61
2023/06/24 12:51:54;;;;;;;7.90;4.18;;;;;;;;;;5005842;28;20140;-61
2023/06/24 12:54:19;;;;;;;7.28;3.90;;;;;;;;;;4996863;28;20048;-61
2023/06/24 12:56:45;;;;;;;6.20;3.92;;;;;;;;;;5002440;28;20133;-61
2023/06/24 12:59:10;;;;;;;9.38;4.30;;;;;;;;;;5007928;28;20026;-61
2023/06/24 13:01:35;;;;;;;6.40;4.13;;;;;;;;;;5007645;28;20499;-61
2023/06/24 13:04:00;;;;;;;5.95;4.28;;;;;;;;;;5007110;28;20049;-61
2023/06/24 13:06:26;;;;;;;8.73;4.32;;;;;;;;;;5007950;28;20029;-61
2023/06/24 13:08:51;;;;;;;6.32;4.40;;;;;;;;;;5012633;28;20029;-61
2023/06/24 13:11:17;;;;;;;7.55;4.13;;;;;;;;;;5004094;28;20030;-61
2023/06/24 13:13:42;;;;;;;7.10;4.60;;;;;;;;;;5011725;28;20021;-62
2023/06/24 13:16:07;;;;;;;6.30;4.35;;;;;;;;;;5007359;28;20387;-62
2023/06/24 13:18:32;;;;;;;7.10;4.10;;;;;;;;;;5009283;28;20025;-62
2023/06/24 13:20:58;;;;;;;7.80;4.28;;;;;;;;;;5013209;28;20025;-62
2023/06/24 13:23:23;;;;;;;6.95;4.80;;;;;;;;;;5010015;28;20546;-62
2023/06/24 13:25:48;;;;;;;7.57;4.45;;;;;;;;;;5009125;28;20061;-62
2023/06/24 13:28:14;;;;;;;6.28;4.82;;;;;;;;;;5010227;28;20660;-62
2023/06/24 13:30:39;;;;;;;6.75;3.90;;;;;;;;;;5008977;28;20034;-62
2023/06/24 13:33:04;;;;;;;6.10;4.70;;;;;;;;;;4997142;28;20101;-62
2023/06/24 13:35:29;;;;;;;8.13;4.50;;;;;;;;;;4998503;28;20498;-62
2023/06/24 13:37:55;;;;;;;6.68;4.80;;;;;;;;;;5005088;28;20022;-62
2023/06/24 13:40:20;;;;;;;8.23;4.75;;;;;;;;;;5007487;28;20033;-62
2023/06/24 13:42:45;;;;;;;6.45;4.57;;;;;;;;;;5011678;28;20129;-62
2023/06/24 13:45:11;;;;;;;7.22;4.20;;;;;;;;;;5001001;28;20084;-62
2023/06/24 13:47:37;;;;;;;7.43;4.70;;;;;;;;;;5011410;28;20025;-62
2023/06/24 13:50:02;;;;;;;7.45;4.30;;;;;;;;;;4999184;28;20417;-63
2023/06/24 13:52:28;;;;;;;7.20;4.38;;;;;;;;;;5013394;28;20021;-63
2023/06/24 13:54:53;;;;;;;8.45;4.70;;;;;;;;;;5004661;28;20026;-63
2023/06/24 13:57:19;;;;;;;6.18;4.28;;;;;;;;;;5002571;28;20049;-62
2023/06/24 13:59:44;;;;;;;7.65;4.65;;;;;;;;;;5003981;28;20025;-63
2023/06/24 14:02:11;;;;;;;6.22;4.20;;;;;;;;;;5000936;28;20023;-63
2023/06/24 14:04:36;;;;;;;6.72;4.03;;;;;;;;;;5005239;28;20046;-67
2023/06/24 14:07:02;;;;;;;8.82;4.38;;;;;;;;;;5005986;28;20115;-69
2023/06/24 14:09:27;;;;;;;7.25;4.80;;;;;;;;;;4999768;28;20080;-73
2023/06/24 14:11:53;;;;;;;6.20;4.50;;;;;;;;;;5012699;28;20026;-74
2023/06/24 14:14:18;;;;;;;10.70;4.82;;;;;;;;;;5012737;28;20383;-74
2023/06/24 14:16:43;;;;;;;8.27;4.22;;;;;;;;;;5003364;28;20033;-75
2023/06/24 14:19:09;;;;;;;9.60;5.25;;;;;;;;;;4998260;28;20491;-74
2023/06/24 14:21:37;;;;;;;7.43;4.70;;;;;;;;;;5006718;28;20076;-74
2023/06/24 14:24:03;;;;;;;7.38;4.30;;;;;;;;;;5000726;28;20472;-69
2023/06/24 14:26:28;;;;;;;7.00;4.70;;;;;;;;;;5004182;28;20030;-67
2023/06/24 14:28:53;;;;;;;6.40;4.60;;;;;;;;;;4999887;28;20053;-67